sensor_id;sensor_type;location;lat;lon;timestamp;P1;durP1;ratioP1;P2;durP2;ratioP2
12861;SDS011;6499;66.348;14.134;2023-09-07T00:00:37;7.27;;;1.50;;
12861;SDS011;6499;66.348;14.134;2023-09-07T00:03:04;5.40;;;1.60;;
12861;SDS011;6499;66.348;14.134;2023-09-07T00:05:30;5.30;;;2.00;;
12861;SDS011;6499;66.348;14.134;2023-09-07T00:07:58;6.10;;;1.77;;
12861;SDS011;6499;66.348;14.134;2023-09-07T00:10:25;5.77;;;1.90;;
12861;SDS011;6499;66.348;14.134;2023-09-07T00:12:52;3.93;;;1.60;;
12861;SDS011;6499;66.348;14.134;2023-09-07T00:15:18;5.07;;;1.70;;
12861;SDS011;6499;66.348;14.134;2023-09-07T00:17:46;4.20;;;1.50;;
12861;SDS011;6499;66.348;14.134;2023-09-07T00:20:12;5.67;;;1.50;;
12861;SDS011;6499;66.348;14.134;2023-09-07T00:22:40;5.27;;;1.63;;
12861;SDS011;6499;66.348;14.134;2023-09-07T00:25:08;5.90;;;2.07;;
12861;SDS011;6499;66.348;14.134;2023-09-07T00:27:34;3.27;;;1.60;;
12861;SDS011;6499;66.348;14.134;2023-09-07T00:30:01;5.27;;;2.00;;
12861;SDS011;6499;66.348;14.134;2023-09-07T00:32:29;4.43;;;1.73;;
12861;SDS011;6499;66.348;14.134;2023-09-07T00:34:56;5.07;;;1.90;;
12861;SDS011;6499;66.348;14.134;2023-09-07T00:37:22;6.13;;;2.17;;
12861;SDS011;6499;66.348;14.134;2023-09-07T00:39:49;4.30;;;1.77;;
12861;SDS011;6499;66.348;14.134;2023-09-07T00:42:19;5.90;;;2.33;;
12861;SDS011;6499;66.348;14.134;2023-09-07T00:44:45;5.83;;;2.20;;
12861;SDS011;6499;66.348;14.134;2023-09-07T00:47:12;5.57;;;1.90;;
12861;SDS011;6499;66.348;14.134;2023-09-07T00:49:39;4.37;;;1.90;;
12861;SDS011;6499;66.348;14.134;2023-09-07T00:52:06;6.97;;;2.00;;
12861;SDS011;6499;66.348;14.134;2023-09-07T00:54:34;6.30;;;1.93;;
12861;SDS011;6499;66.348;14.134;2023-09-07T00:57:02;3.83;;;1.43;;
12861;SDS011;6499;66.348;14.134;2023-09-07T00:59:30;4.43;;;2.23;;
12861;SDS011;6499;66.348;14.134;2023-09-07T01:01:56;8.33;;;2.00;;
12861;SDS011;6499;66.348;14.134;2023-09-07T01:04:23;4.33;;;2.10;;
12861;SDS011;6499;66.348;14.134;2023-09-07T01:06:51;6.33;;;2.10;;
12861;SDS011;6499;66.348;14.134;2023-09-07T01:09:19;5.90;;;2.00;;
12861;SDS011;6499;66.348;14.134;2023-09-07T01:11:47;7.87;;;2.23;;
12861;SDS011;6499;66.348;14.134;2023-09-07T01:14:13;3.57;;;2.03;;
12861;SDS011;6499;66.348;14.134;2023-09-07T01:16:41;5.57;;;2.00;;
12861;SDS011;6499;66.348;14.134;2023-09-07T01:19:08;7.47;;;2.13;;
12861;SDS011;6499;66.348;14.134;2023-09-07T01:21:36;6.40;;;2.40;;
12861;SDS011;6499;66.348;14.134;2023-09-07T01:24:03;5.40;;;2.30;;
12861;SDS011;6499;66.348;14.134;2023-09-07T01:26:30;5.77;;;2.33;;
12861;SDS011;6499;66.348;14.134;2023-09-07T01:28:57;8.80;;;2.40;;
12861;SDS011;6499;66.348;14.134;2023-09-07T01:31:24;6.87;;;2.30;;
12861;SDS011;6499;66.348;14.134;2023-09-07T01:33:50;5.53;;;2.20;;
12861;SDS011;6499;66.348;14.134;2023-09-07T01:36:17;4.70;;;2.07;;
12861;SDS011;6499;66.348;14.134;2023-09-07T01:38:45;4.50;;;1.97;;
12861;SDS011;6499;66.348;14.134;2023-09-07T01:41:11;3.47;;;2.07;;
12861;SDS011;6499;66.348;14.134;2023-09-07T01:43:38;6.40;;;2.13;;
12861;SDS011;6499;66.348;14.134;2023-09-07T01:46:04;5.07;;;2.57;;
12861;SDS011;6499;66.348;14.134;2023-09-07T01:48:31;9.13;;;2.90;;
12861;SDS011;6499;66.348;14.134;2023-09-07T01:50:58;4.50;;;2.10;;
12861;SDS011;6499;66.348;14.134;2023-09-07T01:53:24;6.93;;;2.37;;
12861;SDS011;6499;66.348;14.134;2023-09-07T01:55:54;5.40;;;2.20;;
12861;SDS011;6499;66.348;14.134;2023-09-07T01:58:21;6.50;;;2.10;;
12861;SDS011;6499;66.348;14.134;2023-09-07T02:00:49;6.57;;;2.77;;
12861;SDS011;6499;66.348;14.134;2023-09-07T02:03:15;9.07;;;2.73;;
12861;SDS011;6499;66.348;14.134;2023-09-07T02:05:43;7.13;;;2.50;;
12861;SDS011;6499;66.348;14.134;2023-09-07T02:08:10;5.20;;;2.93;;
12861;SDS011;6499;66.348;14.134;2023-09-07T02:10:37;7.63;;;2.53;;
12861;SDS011;6499;66.348;14.134;2023-09-07T02:13:04;6.40;;;2.67;;
12861;SDS011;6499;66.348;14.134;2023-09-07T02:15:31;6.03;;;2.40;;
12861;SDS011;6499;66.348;14.134;2023-09-07T02:17:56;6.47;;;2.30;;
12861;SDS011;6499;66.348;14.134;2023-09-07T02:20:23;5.30;;;2.30;;
12861;SDS011;6499;66.348;14.134;2023-09-07T02:22:49;5.20;;;2.70;;
12861;SDS011;6499;66.348;14.134;2023-09-07T02:25:16;7.20;;;2.27;;
12861;SDS011;6499;66.348;14.134;2023-09-07T02:27:43;7.00;;;2.50;;
12861;SDS011;6499;66.348;14.134;2023-09-07T02:30:11;3.43;;;2.00;;
12861;SDS011;6499;66.348;14.134;2023-09-07T02:32:37;4.23;;;2.10;;
12861;SDS011;6499;66.348;14.134;2023-09-07T02:35:04;5.30;;;2.37;;
12861;SDS011;6499;66.348;14.134;2023-09-07T02:37:31;3.33;;;1.83;;
12861;SDS011;6499;66.348;14.134;2023-09-07T02:39:58;4.77;;;2.03;;
12861;SDS011;6499;66.348;14.134;2023-09-07T02:42:24;6.27;;;2.20;;
12861;SDS011;6499;66.348;14.134;2023-09-07T02:44:51;6.03;;;1.90;;
12861;SDS011;6499;66.348;14.134;2023-09-07T02:47:20;5.30;;;2.30;;
12861;SDS011;6499;66.348;14.134;2023-09-07T02:49:46;5.47;;;2.33;;
12861;SDS011;6499;66.348;14.134;2023-09-07T02:52:13;6.77;;;2.07;;
12861;SDS011;6499;66.348;14.134;2023-09-07T02:54:39;6.63;;;2.23;;
12861;SDS011;6499;66.348;14.134;2023-09-07T02:57:08;4.47;;;2.30;;
12861;SDS011;6499;66.348;14.134;2023-09-07T02:59:34;5.50;;;2.23;;
12861;SDS011;6499;66.348;14.134;2023-09-07T03:02:01;5.83;;;2.17;;
12861;SDS011;6499;66.348;14.134;2023-09-07T03:04:29;6.50;;;2.47;;
12861;SDS011;6499;66.348;14.134;2023-09-07T03:06:56;7.50;;;2.73;;
12861;SDS011;6499;66.348;14.134;2023-09-07T03:09:22;5.83;;;2.70;;
12861;SDS011;6499;66.348;14.134;2023-09-07T03:11:49;4.57;;;2.20;;
12861;SDS011;6499;66.348;14.134;2023-09-07T03:14:15;6.57;;;2.00;;
12861;SDS011;6499;66.348;14.134;2023-09-07T03:16:42;5.07;;;2.47;;
12861;SDS011;6499;66.348;14.134;2023-09-07T03:19:08;5.37;;;2.40;;
12861;SDS011;6499;66.348;14.134;2023-09-07T03:21:36;5.73;;;2.30;;
12861;SDS011;6499;66.348;14.134;2023-09-07T03:24:03;6.00;;;2.10;;
12861;SDS011;6499;66.348;14.134;2023-09-07T03:26:30;4.37;;;2.30;;
12861;SDS011;6499;66.348;14.134;2023-09-07T03:28:56;6.87;;;2.33;;
12861;SDS011;6499;66.348;14.134;2023-09-07T03:31:23;6.40;;;2.40;;
12861;SDS011;6499;66.348;14.134;2023-09-07T03:33:49;7.50;;;2.33;;
12861;SDS011;6499;66.348;14.134;2023-09-07T03:36:16;5.00;;;2.00;;
12861;SDS011;6499;66.348;14.134;2023-09-07T03:38:44;4.27;;;1.90;;
12861;SDS011;6499;66.348;14.134;2023-09-07T03:41:10;5.00;;;2.17;;
12861;SDS011;6499;66.348;14.134;2023-09-07T03:43:37;5.20;;;2.27;;
12861;SDS011;6499;66.348;14.134;2023-09-07T03:46:04;7.10;;;2.10;;
12861;SDS011;6499;66.348;14.134;2023-09-07T03:48:30;6.17;;;1.90;;
12861;SDS011;6499;66.348;14.134;2023-09-07T03:50:57;6.00;;;2.30;;
12861;SDS011;6499;66.348;14.134;2023-09-07T03:53:23;4.27;;;1.80;;
12861;SDS011;6499;66.348;14.134;2023-09-07T03:55:51;6.63;;;2.33;;
12861;SDS011;6499;66.348;14.134;2023-09-07T03:58:18;3.93;;;1.93;;
12861;SDS011;6499;66.348;14.134;2023-09-07T04:00:44;7.03;;;2.07;;
12861;SDS011;6499;66.348;14.134;2023-09-07T04:03:11;4.70;;;2.00;;
12861;SDS011;6499;66.348;14.134;2023-09-07T04:05:37;3.37;;;1.97;;
12861;SDS011;6499;66.348;14.134;2023-09-07T04:08:04;4.37;;;2.27;;
12861;SDS011;6499;66.348;14.134;2023-09-07T04:10:31;5.00;;;1.90;;
12861;SDS011;6499;66.348;14.134;2023-09-07T04:12:59;4.97;;;2.00;;
12861;SDS011;6499;66.348;14.134;2023-09-07T04:15:25;4.27;;;1.77;;
12861;SDS011;6499;66.348;14.134;2023-09-07T04:17:52;5.23;;;2.17;;
12861;SDS011;6499;66.348;14.134;2023-09-07T04:20:20;5.27;;;2.07;;
12861;SDS011;6499;66.348;14.134;2023-09-07T04:22:46;5.87;;;2.17;;
12861;SDS011;6499;66.348;14.134;2023-09-07T04:25:13;3.83;;;1.90;;
12861;SDS011;6499;66.348;14.134;2023-09-07T04:27:39;3.03;;;1.90;;
12861;SDS011;6499;66.348;14.134;2023-09-07T04:30:08;6.27;;;2.13;;
12861;SDS011;6499;66.348;14.134;2023-09-07T04:32:35;5.80;;;1.90;;
12861;SDS011;6499;66.348;14.134;2023-09-07T04:35:01;5.90;;;2.10;;
12861;SDS011;6499;66.348;14.134;2023-09-07T04:37:28;5.17;;;2.17;;
12861;SDS011;6499;66.348;14.134;2023-09-07T04:39:54;3.17;;;1.93;;
12861;SDS011;6499;66.348;14.134;2023-09-07T04:42:21;7.23;;;2.10;;
12861;SDS011;6499;66.348;14.134;2023-09-07T04:44:47;4.73;;;2.27;;
12861;SDS011;6499;66.348;14.134;2023-09-07T04:47:16;6.13;;;2.50;;
12861;SDS011;6499;66.348;14.134;2023-09-07T04:49:42;4.07;;;2.20;;
12861;SDS011;6499;66.348;14.134;2023-09-07T04:52:09;5.57;;;2.07;;
12861;SDS011;6499;66.348;14.134;2023-09-07T04:54:35;6.17;;;2.40;;
12861;SDS011;6499;66.348;14.134;2023-09-07T04:57:02;3.80;;;2.07;;
12861;SDS011;6499;66.348;14.134;2023-09-07T04:59:28;5.90;;;2.73;;
12861;SDS011;6499;66.348;14.134;2023-09-07T05:01:58;4.93;;;2.37;;
12861;SDS011;6499;66.348;14.134;2023-09-07T05:04:26;3.57;;;2.20;;
12861;SDS011;6499;66.348;14.134;2023-09-07T05:06:52;4.27;;;2.03;;
12861;SDS011;6499;66.348;14.134;2023-09-07T05:09:19;5.83;;;2.03;;
12861;SDS011;6499;66.348;14.134;2023-09-07T05:11:45;6.33;;;2.57;;
12861;SDS011;6499;66.348;14.134;2023-09-07T05:14:12;5.10;;;2.57;;
12861;SDS011;6499;66.348;14.134;2023-09-07T05:16:39;6.77;;;2.77;;
12861;SDS011;6499;66.348;14.134;2023-09-07T05:19:08;7.03;;;2.67;;
12861;SDS011;6499;66.348;14.134;2023-09-07T05:21:36;3.97;;;2.10;;
12861;SDS011;6499;66.348;14.134;2023-09-07T05:24:03;4.57;;;2.17;;
12861;SDS011;6499;66.348;14.134;2023-09-07T05:26:29;6.47;;;2.67;;
12861;SDS011;6499;66.348;14.134;2023-09-07T05:28:56;4.30;;;2.30;;
12861;SDS011;6499;66.348;14.134;2023-09-07T05:31:22;3.90;;;2.10;;
12861;SDS011;6499;66.348;14.134;2023-09-07T05:33:49;6.80;;;2.70;;
12861;SDS011;6499;66.348;14.134;2023-09-07T05:36:16;8.40;;;2.67;;
12861;SDS011;6499;66.348;14.134;2023-09-07T05:38:44;5.73;;;2.80;;
12861;SDS011;6499;66.348;14.134;2023-09-07T05:41:11;10.00;;;2.80;;
12861;SDS011;6499;66.348;14.134;2023-09-07T05:43:38;4.53;;;2.63;;
12861;SDS011;6499;66.348;14.134;2023-09-07T05:46:04;4.73;;;2.73;;
12861;SDS011;6499;66.348;14.134;2023-09-07T05:48:31;6.40;;;3.27;;
12861;SDS011;6499;66.348;14.134;2023-09-07T05:50:57;6.97;;;3.20;;
12861;SDS011;6499;66.348;14.134;2023-09-07T05:53:24;6.60;;;3.00;;
12861;SDS011;6499;66.348;14.134;2023-09-07T05:55:52;6.50;;;3.00;;
12861;SDS011;6499;66.348;14.134;2023-09-07T05:58:19;6.13;;;2.57;;
12861;SDS011;6499;66.348;14.134;2023-09-07T06:00:45;5.13;;;2.33;;
12861;SDS011;6499;66.348;14.134;2023-09-07T06:03:12;5.17;;;2.10;;
12861;SDS011;6499;66.348;14.134;2023-09-07T06:05:39;6.50;;;2.53;;
12861;SDS011;6499;66.348;14.134;2023-09-07T06:08:05;8.63;;;3.57;;
12861;SDS011;6499;66.348;14.134;2023-09-07T06:10:35;6.47;;;2.90;;
12861;SDS011;6499;66.348;14.134;2023-09-07T06:13:03;9.50;;;3.50;;
12861;SDS011;6499;66.348;14.134;2023-09-07T06:15:30;7.53;;;3.53;;
12861;SDS011;6499;66.348;14.134;2023-09-07T06:17:56;8.33;;;3.80;;
12861;SDS011;6499;66.348;14.134;2023-09-07T06:20:23;9.00;;;4.13;;
12861;SDS011;6499;66.348;14.134;2023-09-07T06:22:49;8.37;;;4.07;;
12861;SDS011;6499;66.348;14.134;2023-09-07T06:25:16;5.80;;;2.30;;
12861;SDS011;6499;66.348;14.134;2023-09-07T06:27:43;8.67;;;2.73;;
12861;SDS011;6499;66.348;14.134;2023-09-07T06:30:11;5.73;;;2.80;;
12861;SDS011;6499;66.348;14.134;2023-09-07T06:32:38;6.63;;;3.00;;
12861;SDS011;6499;66.348;14.134;2023-09-07T06:35:05;7.27;;;3.07;;
12861;SDS011;6499;66.348;14.134;2023-09-07T06:37:35;6.70;;;3.10;;
12861;SDS011;6499;66.348;14.134;2023-09-07T06:40:05;5.13;;;3.40;;
12861;SDS011;6499;66.348;14.134;2023-09-07T06:42:32;5.53;;;2.33;;
12861;SDS011;6499;66.348;14.134;2023-09-07T06:44:59;8.03;;;3.37;;
12861;SDS011;6499;66.348;14.134;2023-09-07T06:47:27;5.57;;;2.93;;
12861;SDS011;6499;66.348;14.134;2023-09-07T06:49:53;6.40;;;3.00;;
12861;SDS011;6499;66.348;14.134;2023-09-07T06:52:20;8.87;;;3.17;;
12861;SDS011;6499;66.348;14.134;2023-09-07T06:54:46;8.17;;;3.23;;
12861;SDS011;6499;66.348;14.134;2023-09-07T06:57:13;8.47;;;3.80;;
12861;SDS011;6499;66.348;14.134;2023-09-07T06:59:39;8.67;;;3.43;;
12861;SDS011;6499;66.348;14.134;2023-09-07T07:02:06;8.97;;;3.73;;
12861;SDS011;6499;66.348;14.134;2023-09-07T07:04:34;9.27;;;3.57;;
12861;SDS011;6499;66.348;14.134;2023-09-07T07:07:01;8.60;;;3.40;;
12861;SDS011;6499;66.348;14.134;2023-09-07T07:09:29;8.27;;;3.90;;
12861;SDS011;6499;66.348;14.134;2023-09-07T07:11:55;10.37;;;4.70;;
12861;SDS011;6499;66.348;14.134;2023-09-07T07:14:22;7.80;;;3.80;;
12861;SDS011;6499;66.348;14.134;2023-09-07T07:16:48;7.30;;;3.73;;
12861;SDS011;6499;66.348;14.134;2023-09-07T07:19:15;10.40;;;5.20;;
12861;SDS011;6499;66.348;14.134;2023-09-07T07:21:43;10.53;;;5.90;;
12861;SDS011;6499;66.348;14.134;2023-09-07T07:24:09;11.73;;;5.67;;
12861;SDS011;6499;66.348;14.134;2023-09-07T07:26:36;8.43;;;4.60;;
12861;SDS011;6499;66.348;14.134;2023-09-07T07:29:02;11.50;;;5.27;;
12861;SDS011;6499;66.348;14.134;2023-09-07T07:31:29;11.00;;;4.70;;
12861;SDS011;6499;66.348;14.134;2023-09-07T07:33:55;12.20;;;6.00;;
12861;SDS011;6499;66.348;14.134;2023-09-07T07:36:22;10.63;;;5.13;;
12861;SDS011;6499;66.348;14.134;2023-09-07T07:38:50;10.97;;;5.37;;
12861;SDS011;6499;66.348;14.134;2023-09-07T07:41:16;10.57;;;5.77;;
12861;SDS011;6499;66.348;14.134;2023-09-07T07:43:43;17.03;;;6.03;;
12861;SDS011;6499;66.348;14.134;2023-09-07T07:46:09;12.60;;;4.97;;
12861;SDS011;6499;66.348;14.134;2023-09-07T07:48:36;13.83;;;5.60;;
12861;SDS011;6499;66.348;14.134;2023-09-07T07:51:03;9.57;;;4.33;;
12861;SDS011;6499;66.348;14.134;2023-09-07T07:53:30;14.13;;;4.80;;
12861;SDS011;6499;66.348;14.134;2023-09-07T07:55:58;11.73;;;5.43;;
12861;SDS011;6499;66.348;14.134;2023-09-07T07:58:25;15.53;;;5.90;;
12861;SDS011;6499;66.348;14.134;2023-09-07T08:00:51;12.03;;;5.07;;
12861;SDS011;6499;66.348;14.134;2023-09-07T08:03:18;10.97;;;4.70;;
12861;SDS011;6499;66.348;14.134;2023-09-07T08:05:45;9.27;;;4.63;;
12861;SDS011;6499;66.348;14.134;2023-09-07T08:08:11;9.97;;;4.47;;
12861;SDS011;6499;66.348;14.134;2023-09-07T08:10:38;10.73;;;4.70;;
12861;SDS011;6499;66.348;14.134;2023-09-07T08:13:08;10.33;;;4.77;;
12861;SDS011;6499;66.348;14.134;2023-09-07T08:15:34;11.83;;;5.10;;
12861;SDS011;6499;66.348;14.134;2023-09-07T08:18:01;9.13;;;4.77;;
12861;SDS011;6499;66.348;14.134;2023-09-07T08:20:28;11.03;;;4.30;;
12861;SDS011;6499;66.348;14.134;2023-09-07T08:22:55;10.33;;;3.93;;
12861;SDS011;6499;66.348;14.134;2023-09-07T08:25:22;9.73;;;3.87;;
12861;SDS011;6499;66.348;14.134;2023-09-07T08:27:51;9.90;;;3.87;;
12861;SDS011;6499;66.348;14.134;2023-09-07T08:30:22;9.50;;;4.00;;
12861;SDS011;6499;66.348;14.134;2023-09-07T08:32:50;10.63;;;4.47;;
12861;SDS011;6499;66.348;14.134;2023-09-07T08:35:17;10.40;;;4.63;;
12861;SDS011;6499;66.348;14.134;2023-09-07T08:37:44;9.00;;;4.00;;
12861;SDS011;6499;66.348;14.134;2023-09-07T08:40:10;15.00;;;4.47;;
12861;SDS011;6499;66.348;14.134;2023-09-07T08:42:38;11.13;;;4.47;;
12861;SDS011;6499;66.348;14.134;2023-09-07T08:45:05;7.90;;;4.13;;
12861;SDS011;6499;66.348;14.134;2023-09-07T08:47:38;10.37;;;4.43;;
12861;SDS011;6499;66.348;14.134;2023-09-07T08:50:05;12.33;;;4.03;;
12861;SDS011;6499;66.348;14.134;2023-09-07T08:52:33;12.97;;;4.30;;
12861;SDS011;6499;66.348;14.134;2023-09-07T08:54:59;10.70;;;4.70;;
12861;SDS011;6499;66.348;14.134;2023-09-07T08:57:29;12.87;;;4.63;;
12861;SDS011;6499;66.348;14.134;2023-09-07T08:59:56;10.43;;;4.27;;
12861;SDS011;6499;66.348;14.134;2023-09-07T09:02:23;11.03;;;4.30;;
12861;SDS011;6499;66.348;14.134;2023-09-07T09:04:51;10.33;;;4.07;;
12861;SDS011;6499;66.348;14.134;2023-09-07T09:07:18;9.60;;;4.07;;
12861;SDS011;6499;66.348;14.134;2023-09-07T09:09:46;8.80;;;3.57;;
12861;SDS011;6499;66.348;14.134;2023-09-07T09:12:12;10.10;;;3.93;;
12861;SDS011;6499;66.348;14.134;2023-09-07T09:14:41;11.33;;;4.00;;
12861;SDS011;6499;66.348;14.134;2023-09-07T09:17:10;9.67;;;3.83;;
12861;SDS011;6499;66.348;14.134;2023-09-07T09:19:37;8.73;;;4.10;;
12861;SDS011;6499;66.348;14.134;2023-09-07T09:22:05;8.53;;;4.00;;
12861;SDS011;6499;66.348;14.134;2023-09-07T09:24:32;9.63;;;4.43;;
12861;SDS011;6499;66.348;14.134;2023-09-07T09:26:59;10.60;;;4.47;;
12861;SDS011;6499;66.348;14.134;2023-09-07T09:29:26;12.27;;;4.23;;
12861;SDS011;6499;66.348;14.134;2023-09-07T09:31:53;7.10;;;3.43;;
12861;SDS011;6499;66.348;14.134;2023-09-07T09:34:20;7.97;;;3.90;;
12861;SDS011;6499;66.348;14.134;2023-09-07T09:36:47;9.77;;;3.80;;
12861;SDS011;6499;66.348;14.134;2023-09-07T09:39:22;8.17;;;4.00;;
12861;SDS011;6499;66.348;14.134;2023-09-07T09:41:50;10.33;;;4.23;;
12861;SDS011;6499;66.348;14.134;2023-09-07T09:44:16;9.30;;;4.03;;
12861;SDS011;6499;66.348;14.134;2023-09-07T09:46:43;7.20;;;3.50;;
12861;SDS011;6499;66.348;14.134;2023-09-07T09:49:10;7.37;;;3.33;;
12861;SDS011;6499;66.348;14.134;2023-09-07T09:51:38;7.83;;;3.20;;
12861;SDS011;6499;66.348;14.134;2023-09-07T09:54:06;5.90;;;2.93;;
12861;SDS011;6499;66.348;14.134;2023-09-07T09:56:34;10.63;;;3.60;;
12861;SDS011;6499;66.348;14.134;2023-09-07T09:59:01;8.30;;;3.67;;
12861;SDS011;6499;66.348;14.134;2023-09-07T10:01:27;6.87;;;3.70;;
12861;SDS011;6499;66.348;14.134;2023-09-07T10:03:57;9.83;;;4.10;;
12861;SDS011;6499;66.348;14.134;2023-09-07T10:06:24;8.77;;;3.63;;
12861;SDS011;6499;66.348;14.134;2023-09-07T10:08:55;10.33;;;3.27;;
12861;SDS011;6499;66.348;14.134;2023-09-07T10:11:29;6.93;;;3.73;;
12861;SDS011;6499;66.348;14.134;2023-09-07T10:14:00;6.63;;;3.57;;
12861;SDS011;6499;66.348;14.134;2023-09-07T10:16:28;8.77;;;3.40;;
12861;SDS011;6499;66.348;14.134;2023-09-07T10:18:54;9.87;;;3.83;;
12861;SDS011;6499;66.348;14.134;2023-09-07T10:21:23;9.73;;;3.70;;
12861;SDS011;6499;66.348;14.134;2023-09-07T10:23:50;8.20;;;3.50;;
12861;SDS011;6499;66.348;14.134;2023-09-07T10:26:18;8.97;;;4.07;;
12861;SDS011;6499;66.348;14.134;2023-09-07T10:28:46;7.00;;;2.50;;
12861;SDS011;6499;66.348;14.134;2023-09-07T10:31:18;7.77;;;3.27;;
12861;SDS011;6499;66.348;14.134;2023-09-07T10:33:45;8.90;;;2.80;;
12861;SDS011;6499;66.348;14.134;2023-09-07T10:36:20;4.93;;;2.10;;
12861;SDS011;6499;66.348;14.134;2023-09-07T10:38:47;4.87;;;2.20;;
12861;SDS011;6499;66.348;14.134;2023-09-07T10:41:13;4.43;;;2.20;;
12861;SDS011;6499;66.348;14.134;2023-09-07T10:43:46;5.13;;;2.07;;
12861;SDS011;6499;66.348;14.134;2023-09-07T10:46:13;5.37;;;2.60;;
12861;SDS011;6499;66.348;14.134;2023-09-07T10:48:41;6.30;;;2.33;;
12861;SDS011;6499;66.348;14.134;2023-09-07T10:51:08;5.83;;;2.40;;
12861;SDS011;6499;66.348;14.134;2023-09-07T10:53:34;4.10;;;2.10;;
12861;SDS011;6499;66.348;14.134;2023-09-07T10:56:02;4.13;;;1.70;;
12861;SDS011;6499;66.348;14.134;2023-09-07T10:58:29;2.73;;;1.70;;
12861;SDS011;6499;66.348;14.134;2023-09-07T11:00:56;4.90;;;2.23;;
12861;SDS011;6499;66.348;14.134;2023-09-07T11:03:24;5.40;;;2.30;;
12861;SDS011;6499;66.348;14.134;2023-09-07T11:05:52;4.77;;;1.77;;
12861;SDS011;6499;66.348;14.134;2023-09-07T11:08:19;4.57;;;1.80;;
12861;SDS011;6499;66.348;14.134;2023-09-07T11:10:46;5.13;;;2.20;;
12861;SDS011;6499;66.348;14.134;2023-09-07T11:13:12;4.13;;;1.87;;
12861;SDS011;6499;66.348;14.134;2023-09-07T11:15:39;4.47;;;1.50;;
12861;SDS011;6499;66.348;14.134;2023-09-07T11:18:06;4.90;;;1.70;;
12861;SDS011;6499;66.348;14.134;2023-09-07T11:20:32;4.17;;;1.87;;
12861;SDS011;6499;66.348;14.134;2023-09-07T11:23:00;3.70;;;1.80;;
12861;SDS011;6499;66.348;14.134;2023-09-07T11:25:27;3.20;;;1.47;;
12861;SDS011;6499;66.348;14.134;2023-09-07T11:28:03;3.10;;;2.03;;
12861;SDS011;6499;66.348;14.134;2023-09-07T11:30:29;5.90;;;1.80;;
12861;SDS011;6499;66.348;14.134;2023-09-07T11:33:02;4.67;;;2.10;;
12861;SDS011;6499;66.348;14.134;2023-09-07T11:35:30;2.67;;;1.50;;
12861;SDS011;6499;66.348;14.134;2023-09-07T11:38:00;5.13;;;1.57;;
12861;SDS011;6499;66.348;14.134;2023-09-07T11:40:29;4.63;;;1.90;;
12861;SDS011;6499;66.348;14.134;2023-09-07T11:42:55;4.83;;;2.10;;
12861;SDS011;6499;66.348;14.134;2023-09-07T11:45:22;4.50;;;1.47;;
12861;SDS011;6499;66.348;14.134;2023-09-07T11:47:48;3.03;;;1.60;;
12861;SDS011;6499;66.348;14.134;2023-09-07T11:50:16;3.70;;;1.60;;
12861;SDS011;6499;66.348;14.134;2023-09-07T11:52:42;5.03;;;1.60;;
12861;SDS011;6499;66.348;14.134;2023-09-07T11:55:10;4.23;;;1.90;;
12861;SDS011;6499;66.348;14.134;2023-09-07T11:57:37;4.13;;;1.90;;
12861;SDS011;6499;66.348;14.134;2023-09-07T12:00:04;4.10;;;1.80;;
12861;SDS011;6499;66.348;14.134;2023-09-07T12:02:31;2.83;;;1.60;;
12861;SDS011;6499;66.348;14.134;2023-09-07T12:04:57;5.87;;;1.73;;
12861;SDS011;6499;66.348;14.134;2023-09-07T12:07:25;3.93;;;1.90;;
12861;SDS011;6499;66.348;14.134;2023-09-07T12:09:52;5.83;;;2.17;;
12861;SDS011;6499;66.348;14.134;2023-09-07T12:12:22;5.13;;;1.80;;
12861;SDS011;6499;66.348;14.134;2023-09-07T12:14:49;5.67;;;1.87;;
12861;SDS011;6499;66.348;14.134;2023-09-07T12:17:15;4.03;;;1.87;;
12861;SDS011;6499;66.348;14.134;2023-09-07T12:19:42;3.27;;;1.90;;
12861;SDS011;6499;66.348;14.134;2023-09-07T12:22:11;3.57;;;1.47;;
12861;SDS011;6499;66.348;14.134;2023-09-07T12:24:37;3.47;;;1.50;;
12861;SDS011;6499;66.348;14.134;2023-09-07T12:27:04;4.80;;;2.07;;
12861;SDS011;6499;66.348;14.134;2023-09-07T12:29:32;4.13;;;1.73;;
12861;SDS011;6499;66.348;14.134;2023-09-07T12:31:59;5.37;;;2.00;;
12861;SDS011;6499;66.348;14.134;2023-09-07T12:34:26;4.83;;;1.70;;
12861;SDS011;6499;66.348;14.134;2023-09-07T12:36:53;5.03;;;1.83;;
12861;SDS011;6499;66.348;14.134;2023-09-07T12:39:19;4.67;;;1.90;;
12861;SDS011;6499;66.348;14.134;2023-09-07T12:41:46;5.67;;;1.83;;
12861;SDS011;6499;66.348;14.134;2023-09-07T12:44:12;5.53;;;1.80;;
12861;SDS011;6499;66.348;14.134;2023-09-07T12:46:40;2.30;;;1.87;;
12861;SDS011;6499;66.348;14.134;2023-09-07T12:49:07;3.23;;;1.80;;
12861;SDS011;6499;66.348;14.134;2023-09-07T12:51:33;4.90;;;1.90;;
12861;SDS011;6499;66.348;14.134;2023-09-07T12:54:00;4.00;;;2.07;;
12861;SDS011;6499;66.348;14.134;2023-09-07T12:56:28;3.60;;;1.70;;
12861;SDS011;6499;66.348;14.134;2023-09-07T12:58:54;3.70;;;1.80;;
12861;SDS011;6499;66.348;14.134;2023-09-07T13:01:22;3.43;;;1.70;;
12861;SDS011;6499;66.348;14.134;2023-09-07T13:03:50;4.60;;;1.80;;
12861;SDS011;6499;66.348;14.134;2023-09-07T13:06:16;3.27;;;1.80;;
12861;SDS011;6499;66.348;14.134;2023-09-07T13:08:43;4.63;;;2.00;;
12861;SDS011;6499;66.348;14.134;2023-09-07T13:11:11;3.40;;;1.63;;
12861;SDS011;6499;66.348;14.134;2023-09-07T13:13:38;3.57;;;1.27;;
12861;SDS011;6499;66.348;14.134;2023-09-07T13:16:05;4.40;;;2.03;;
12861;SDS011;6499;66.348;14.134;2023-09-07T13:18:31;4.93;;;1.80;;
12861;SDS011;6499;66.348;14.134;2023-09-07T13:20:59;3.23;;;1.80;;
12861;SDS011;6499;66.348;14.134;2023-09-07T13:23:26;4.80;;;1.70;;
12861;SDS011;6499;66.348;14.134;2023-09-07T13:25:53;3.43;;;1.67;;
12861;SDS011;6499;66.348;14.134;2023-09-07T13:28:20;3.80;;;1.67;;
12861;SDS011;6499;66.348;14.134;2023-09-07T13:30:46;7.40;;;5.27;;
12861;SDS011;6499;66.348;14.134;2023-09-07T13:33:13;3.40;;;2.80;;
12861;SDS011;6499;66.348;14.134;2023-09-07T13:35:39;4.57;;;2.93;;
12861;SDS011;6499;66.348;14.134;2023-09-07T13:38:07;4.27;;;2.00;;
12861;SDS011;6499;66.348;14.134;2023-09-07T13:40:34;7.53;;;1.90;;
12861;SDS011;6499;66.348;14.134;2023-09-07T13:43:00;3.43;;;1.70;;
12861;SDS011;6499;66.348;14.134;2023-09-07T13:45:27;3.00;;;1.60;;
12861;SDS011;6499;66.348;14.134;2023-09-07T13:47:55;4.90;;;1.77;;
12861;SDS011;6499;66.348;14.134;2023-09-07T13:50:21;2.30;;;1.37;;
12861;SDS011;6499;66.348;14.134;2023-09-07T13:52:48;3.60;;;1.80;;
12861;SDS011;6499;66.348;14.134;2023-09-07T13:55:16;2.50;;;1.40;;
12861;SDS011;6499;66.348;14.134;2023-09-07T13:57:42;2.23;;;1.23;;
12861;SDS011;6499;66.348;14.134;2023-09-07T14:00:09;4.13;;;1.53;;
12861;SDS011;6499;66.348;14.134;2023-09-07T14:02:36;3.47;;;1.80;;
12861;SDS011;6499;66.348;14.134;2023-09-07T14:05:02;3.50;;;1.57;;
12861;SDS011;6499;66.348;14.134;2023-09-07T14:07:30;3.47;;;1.37;;
12861;SDS011;6499;66.348;14.134;2023-09-07T14:09:56;4.77;;;1.90;;
12861;SDS011;6499;66.348;14.134;2023-09-07T14:12:24;3.13;;;1.30;;
12861;SDS011;6499;66.348;14.134;2023-09-07T14:14:50;1.93;;;1.23;;
12861;SDS011;6499;66.348;14.134;2023-09-07T14:17:17;2.23;;;1.30;;
12861;SDS011;6499;66.348;14.134;2023-09-07T14:19:43;3.00;;;1.30;;
12861;SDS011;6499;66.348;14.134;2023-09-07T14:22:10;3.20;;;1.50;;
12861;SDS011;6499;66.348;14.134;2023-09-07T14:24:37;3.80;;;1.60;;
12861;SDS011;6499;66.348;14.134;2023-09-07T14:27:03;2.93;;;1.30;;
12861;SDS011;6499;66.348;14.134;2023-09-07T14:29:31;2.73;;;1.17;;
12861;SDS011;6499;66.348;14.134;2023-09-07T14:31:59;4.33;;;1.27;;
12861;SDS011;6499;66.348;14.134;2023-09-07T14:34:25;2.43;;;1.37;;
12861;SDS011;6499;66.348;14.134;2023-09-07T14:36:52;3.83;;;1.60;;
12861;SDS011;6499;66.348;14.134;2023-09-07T14:39:20;3.43;;;1.60;;
12861;SDS011;6499;66.348;14.134;2023-09-07T14:41:49;2.80;;;1.20;;
12861;SDS011;6499;66.348;14.134;2023-09-07T14:44:15;2.00;;;1.20;;